createdAt,value
2018-08-25T00:00:14.408Z,90.83
2018-08-25T00:02:42.141Z,90.80
2018-08-25T00:05:09.932Z,90.84
2018-08-25T00:07:37.600Z,90.90
2018-08-25T00:10:05.663Z,90.95
2018-08-25T00:12:33.387Z,91.09
2018-08-25T00:15:01.081Z,91.32
2018-08-25T00:17:28.807Z,90.89
2018-08-25T00:19:56.629Z,90.74
2018-08-25T00:22:24.332Z,90.75
2018-08-25T00:24:52.101Z,90.61
2018-08-25T00:27:19.810Z,90.68
2018-08-25T00:29:47.535Z,91.43
2018-08-25T00:32:15.270Z,91.26
2018-08-25T00:34:43.004Z,91.16
2018-08-25T00:37:10.791Z,91.22
2018-08-25T00:39:38.537Z,90.85
2018-08-25T00:42:06.266Z,90.81
2018-08-25T00:44:33.996Z,90.76
2018-08-25T00:47:01.733Z,90.69
2018-08-25T00:49:29.496Z,90.92
2018-08-25T00:51:57.231Z,91.04
2018-08-25T00:54:24.947Z,90.93
2018-08-25T00:56:52.683Z,91.17
2018-08-25T00:59:20.412Z,91.43
2018-08-25T01:01:48.137Z,91.19
2018-08-25T01:04:15.870Z,91.03
2018-08-25T01:06:43.553Z,91.54
2018-08-25T01:09:11.268Z,91.39
2018-08-25T01:11:39.058Z,91.45
2018-08-25T01:14:06.795Z,91.91
2018-08-25T01:16:34.532Z,91.86
2018-08-25T01:19:02.350Z,91.44
2018-08-25T01:21:30.036Z,91.61
2018-08-25T01:23:57.731Z,91.41
2018-08-25T01:26:25.440Z,91.78
2018-08-25T01:28:53.216Z,92.05
2018-08-25T01:31:20.913Z,92.13
2018-08-25T01:33:48.600Z,92.01
2018-08-25T01:36:16.348Z,91.84
2018-08-25T01:38:44.064Z,91.98
2018-08-25T01:41:11.756Z,92.06
2018-08-25T01:43:39.472Z,91.96
2018-08-25T01:46:07.174Z,92.36
2018-08-25T01:48:34.857Z,91.93
2018-08-25T01:51:02.568Z,92.24
2018-08-25T01:53:30.253Z,92.12
2018-08-25T01:55:57.956Z,91.42
2018-08-25T01:58:25.689Z,92.06
2018-08-25T02:00:53.368Z,91.69
2018-08-25T02:03:21.052Z,91.54
2018-08-25T02:05:48.824Z,91.75
2018-08-25T02:08:16.512Z,91.83
2018-08-25T02:10:44.200Z,91.88
2018-08-25T02:13:11.942Z,91.87
2018-08-25T02:15:39.676Z,92.21
2018-08-25T02:18:07.368Z,91.80
2018-08-25T02:20:35.104Z,91.61
2018-08-25T02:23:02.784Z,92.15
2018-08-25T02:25:30.487Z,92.07
2018-08-25T02:27:58.238Z,91.39
2018-08-25T02:30:25.944Z,92.08
2018-08-25T02:32:53.632Z,92.08
2018-08-25T02:35:21.349Z,92.15
2018-08-25T02:37:49.051Z,91.99
2018-08-25T02:40:16.824Z,92.05
2018-08-25T02:42:44.607Z,92.33
2018-08-25T02:45:12.334Z,92.28
2018-08-25T02:47:40.012Z,92.04
2018-08-25T02:50:07.788Z,92.07
2018-08-25T02:52:35.541Z,91.78
2018-08-25T02:55:03.284Z,91.65
2018-08-25T02:57:31.032Z,91.59
2018-08-25T02:59:58.732Z,91.36
2018-08-25T03:02:26.396Z,91.69
2018-08-25T03:04:54.104Z,91.37
2018-08-25T03:07:21.823Z,90.93
2018-08-25T03:09:49.517Z,91.32
2018-08-25T03:12:17.235Z,91.13
2018-08-25T03:14:44.914Z,91.00
2018-08-25T03:17:12.620Z,91.04
2018-08-25T03:19:40.347Z,90.53
2018-08-25T03:22:08.061Z,90.57
2018-08-25T03:24:35.823Z,90.27
2018-08-25T03:27:03.711Z,89.97
2018-08-25T03:29:31.428Z,90.20
2018-08-25T03:31:59.136Z,89.45
2018-08-25T03:34:26.826Z,89.73
2018-08-25T03:36:54.536Z,90.01
2018-08-25T03:39:22.247Z,90.01
2018-08-25T03:41:49.940Z,90.08
2018-08-25T03:44:17.604Z,90.18
2018-08-25T03:46:45.320Z,90.23
2018-08-25T03:49:13.033Z,89.90
2018-08-25T03:51:40.880Z,89.77
2018-08-25T03:54:08.556Z,89.95
2018-08-25T03:56:36.222Z,89.40
2018-08-25T03:59:03.998Z,89.95
2018-08-25T04:01:32.074Z,89.50
2018-08-25T04:03:59.731Z,89.38
2018-08-25T04:06:27.571Z,89.95
2018-08-25T04:08:55.256Z,89.74
2018-08-25T04:11:22.976Z,89.51
2018-08-25T04:13:50.763Z,89.64
2018-08-25T04:16:18.457Z,89.80
2018-08-25T04:18:46.165Z,89.62
2018-08-25T04:21:13.895Z,89.79
2018-08-25T04:23:41.600Z,89.75
2018-08-25T04:26:09.274Z,89.55
2018-08-25T04:28:36.991Z,89.58
2018-08-25T04:31:04.720Z,89.82
2018-08-25T04:33:32.823Z,90.29
2018-08-25T04:36:00.523Z,90.26
2018-08-25T04:38:28.245Z,89.69
2018-08-25T04:40:55.957Z,89.30
2018-08-25T04:43:23.674Z,89.22
2018-08-25T04:45:51.462Z,89.72
2018-08-25T04:48:19.160Z,89.39
2018-08-25T04:50:46.924Z,89.43
2018-08-25T04:53:14.629Z,89.00
2018-08-25T04:55:42.307Z,89.22
2018-08-25T04:58:10.079Z,88.66
2018-08-25T05:00:37.751Z,88.69
2018-08-25T05:03:05.517Z,88.69
2018-08-25T05:05:33.246Z,88.27
2018-08-25T05:08:01.012Z,88.56
2018-08-25T05:10:28.723Z,88.79
2018-08-25T05:12:56.472Z,87.89
2018-08-25T05:15:24.168Z,85.89
2018-08-25T05:17:51.877Z,85.33
2018-08-25T05:20:19.617Z,85.37
2018-08-25T05:22:47.300Z,83.79
2018-08-25T05:25:14.973Z,83.51
2018-08-25T05:27:42.692Z,81.89
2018-08-25T05:30:10.453Z,81.87
2018-08-25T05:32:38.180Z,81.43
2018-08-25T05:35:06.292Z,82.30
2018-08-25T05:37:34.020Z,79.93
2018-08-25T05:40:01.722Z,82.91
2018-08-25T05:42:29.447Z,82.03
2018-08-25T05:44:57.178Z,81.65
2018-08-25T05:47:25.015Z,81.47
2018-08-25T05:49:52.713Z,80.96
2018-08-25T05:52:20.504Z,81.07
2018-08-25T05:54:48.212Z,82.04
2018-08-25T05:57:15.893Z,82.14
2018-08-25T05:59:43.647Z,81.06
2018-08-25T06:02:11.468Z,82.31
2018-08-25T06:04:39.164Z,81.60
2018-08-25T06:07:07.012Z,81.03
2018-08-25T06:09:34.723Z,80.85
2018-08-25T06:12:02.426Z,78.78
2018-08-25T06:14:30.158Z,78.18
2018-08-25T06:16:57.860Z,76.59
2018-08-25T06:19:25.620Z,75.08
2018-08-25T06:21:53.348Z,74.43
2018-08-25T06:24:21.126Z,74.55
2018-08-25T06:26:48.844Z,75.75
2018-08-25T06:29:16.572Z,75.59
2018-08-25T06:31:44.324Z,75.28
2018-08-25T06:34:12.041Z,76.58
2018-08-25T06:36:39.910Z,76.79
2018-08-25T06:39:08.646Z,75.40
2018-08-25T06:41:36.438Z,74.10
2018-08-25T06:44:04.155Z,73.74
2018-08-25T06:46:31.896Z,71.04
2018-08-25T06:48:59.674Z,72.34
2018-08-25T06:51:27.425Z,72.19
2018-08-25T06:53:55.270Z,72.42
2018-08-25T06:56:22.990Z,73.87
2018-08-25T06:58:50.717Z,73.06
2018-08-25T07:01:18.432Z,72.10
2018-08-25T07:03:46.284Z,70.50
2018-08-25T07:06:14.067Z,68.53
2018-08-25T07:08:41.763Z,70.14
2018-08-25T07:11:09.591Z,66.67
2018-08-25T07:13:37.311Z,65.77
2018-08-25T07:16:05.157Z,63.95
2018-08-25T07:18:32.986Z,65.13
2018-08-25T07:21:00.982Z,65.23
2018-08-25T07:23:29.026Z,66.32
2018-08-25T07:25:56.869Z,65.21
2018-08-25T07:28:24.590Z,65.16
2018-08-25T07:30:52.368Z,65.29
2018-08-25T07:33:20.111Z,62.95
2018-08-25T07:35:47.896Z,63.25
2018-08-25T07:38:15.695Z,63.49
2018-08-25T07:40:43.459Z,62.44
2018-08-25T07:43:11.181Z,63.81
2018-08-25T07:45:38.920Z,62.67
2018-08-25T07:48:06.633Z,63.79
2018-08-25T07:50:34.373Z,63.42
2018-08-25T07:53:02.089Z,63.76
2018-08-25T07:55:29.895Z,62.53
2018-08-25T07:57:57.601Z,61.45
2018-08-25T08:00:25.345Z,60.96
2018-08-25T08:02:53.071Z,61.78
2018-08-25T08:05:21.483Z,62.30
2018-08-25T08:07:49.220Z,62.33
2018-08-25T08:10:16.960Z,64.63
2018-08-25T08:12:44.713Z,64.75
2018-08-25T08:15:12.464Z,64.70
2018-08-25T08:17:40.161Z,63.86
2018-08-25T08:20:07.976Z,64.38
2018-08-25T08:22:35.707Z,62.21
2018-08-25T08:25:03.637Z,61.08
2018-08-25T08:27:31.348Z,60.13
2018-08-25T08:29:59.068Z,61.05
2018-08-25T08:32:26.844Z,59.75
2018-08-25T08:34:54.587Z,58.47
2018-08-25T08:37:22.321Z,59.50
2018-08-25T08:39:50.093Z,59.34
2018-08-25T08:42:17.817Z,59.83
2018-08-25T08:44:45.556Z,59.93
2018-08-25T08:47:13.309Z,58.15
2018-08-25T08:49:46.748Z,55.76
2018-08-25T08:52:08.811Z,57.23
2018-08-25T08:54:36.618Z,58.25
2018-08-25T08:57:04.356Z,57.07
2018-08-25T08:59:32.100Z,57.55
2018-08-25T09:01:59.862Z,57.63
2018-08-25T09:04:27.565Z,58.09
2018-08-25T09:06:55.286Z,57.96
2018-08-25T09:09:23.076Z,57.80
2018-08-25T09:11:50.870Z,56.63
2018-08-25T09:14:18.552Z,55.79
2018-08-25T09:16:46.259Z,57.06
2018-08-25T09:19:14.021Z,58.07
2018-08-25T09:21:41.768Z,58.31
2018-08-25T09:24:09.504Z,57.91
2018-08-25T09:26:37.243Z,56.91
2018-08-25T09:29:05.593Z,55.82
2018-08-25T09:31:33.395Z,56.57
2018-08-25T09:34:01.097Z,58.59
2018-08-25T09:36:28.950Z,57.44
2018-08-25T09:38:56.652Z,57.49
2018-08-25T09:41:24.356Z,58.20
2018-08-25T09:43:52.100Z,58.34
2018-08-25T09:46:19.832Z,58.73
2018-08-25T09:48:47.603Z,58.52
2018-08-25T09:51:15.365Z,57.92
2018-08-25T09:53:43.150Z,59.29
2018-08-25T09:56:10.856Z,60.08
2018-08-25T09:58:38.603Z,61.14
2018-08-25T10:02:09.592Z,59.32
2018-08-25T10:04:37.302Z,58.99
2018-08-25T10:07:05.488Z,61.30
2018-08-25T10:09:33.265Z,59.26
2018-08-25T10:12:00.982Z,58.83
2018-08-25T10:14:28.813Z,58.94
2018-08-25T10:16:56.587Z,60.20
2018-08-25T10:19:24.348Z,59.39
2018-08-25T10:21:52.303Z,59.36
2018-08-25T10:24:20.289Z,60.32
2018-08-25T10:26:48.095Z,60.37
2018-08-25T10:29:15.861Z,57.82
2018-08-25T10:31:43.597Z,58.06
2018-08-25T10:34:11.356Z,57.79
2018-08-25T10:36:39.117Z,56.58
2018-08-25T10:39:08.844Z,58.17
2018-08-25T10:41:36.628Z,56.78
2018-08-25T10:44:05.144Z,55.13
2018-08-25T10:46:32.857Z,55.37
2018-08-25T10:49:00.556Z,56.00
2018-08-25T10:51:28.442Z,56.31
2018-08-25T10:53:56.223Z,55.76
2018-08-25T10:56:23.940Z,51.96
2018-08-25T10:58:51.672Z,54.56
2018-08-25T11:01:19.496Z,55.32
2018-08-25T11:03:47.203Z,54.10
2018-08-25T11:06:14.935Z,57.22
2018-08-25T11:08:42.708Z,55.69
2018-08-25T11:11:10.461Z,57.01
2018-08-25T11:13:38.203Z,58.22
2018-08-25T11:16:05.941Z,57.83
2018-08-25T11:18:33.656Z,58.00
2018-08-25T11:21:01.429Z,60.00
2018-08-25T11:23:29.135Z,60.12
2018-08-25T11:25:56.895Z,59.73
2018-08-25T11:28:24.691Z,56.85
2018-08-25T11:30:52.415Z,57.30
2018-08-25T11:33:20.124Z,54.55
2018-08-25T11:35:47.838Z,55.20
2018-08-25T11:38:15.583Z,54.37
2018-08-25T11:40:43.362Z,53.78
2018-08-25T11:43:11.132Z,53.83
2018-08-25T11:45:38.858Z,55.67
2018-08-25T11:48:06.627Z,54.66
2018-08-25T11:50:34.347Z,54.93
2018-08-25T11:53:02.111Z,56.38
2018-08-25T11:55:29.905Z,54.94
2018-08-25T11:57:57.642Z,53.61
2018-08-25T12:00:25.475Z,55.30
2018-08-25T12:02:53.223Z,51.09
2018-08-25T12:05:20.936Z,51.15
2018-08-25T12:07:48.671Z,53.35
2018-08-25T12:10:16.442Z,49.55
2018-08-25T12:12:44.144Z,53.04
2018-08-25T12:15:11.886Z,52.47
2018-08-25T12:17:39.633Z,51.41
2018-08-25T12:20:07.411Z,50.95
2018-08-25T12:22:35.125Z,52.80
2018-08-25T12:25:02.931Z,51.61
2018-08-25T12:27:30.644Z,52.06
2018-08-25T12:29:58.358Z,52.16
2018-08-25T12:32:26.736Z,52.59
2018-08-25T12:34:54.480Z,51.88
2018-08-25T12:37:22.207Z,52.25
2018-08-25T12:39:49.942Z,52.45
2018-08-25T12:42:17.672Z,52.41
2018-08-25T12:44:45.400Z,52.37
2018-08-25T12:47:13.144Z,51.37
2018-08-25T12:49:40.827Z,51.83
2018-08-25T12:52:08.550Z,51.29
2018-08-25T12:54:36.270Z,50.46
2018-08-25T12:57:04.864Z,51.71
2018-08-25T12:59:32.621Z,50.94
2018-08-25T13:02:00.553Z,51.81
2018-08-25T13:04:28.283Z,52.59
2018-08-25T13:06:56.044Z,53.77
2018-08-25T13:09:23.752Z,53.60
2018-08-25T13:11:51.513Z,53.72
2018-08-25T13:14:19.253Z,54.51
2018-08-25T13:16:46.943Z,55.11
2018-08-25T13:19:14.637Z,54.45
2018-08-25T13:21:42.340Z,55.25
2018-08-25T13:24:10.111Z,55.55
2018-08-25T13:26:37.816Z,55.83
2018-08-25T13:29:05.544Z,55.66
2018-08-25T13:31:33.308Z,55.87
2018-08-25T13:34:01.005Z,57.12
2018-08-25T13:36:28.697Z,58.02
2018-08-25T13:38:56.468Z,58.51
2018-08-25T13:41:24.147Z,57.67
2018-08-25T13:43:51.865Z,58.98
2018-08-25T13:46:19.665Z,59.55
2018-08-25T13:48:47.429Z,60.19
2018-08-25T13:51:15.143Z,59.81
2018-08-25T13:53:42.963Z,60.19
2018-08-25T13:56:10.759Z,60.25
2018-08-25T13:58:38.467Z,60.75
2018-08-25T14:01:06.235Z,60.42
2018-08-25T14:03:33.973Z,59.95
2018-08-25T14:06:01.671Z,59.82
2018-08-25T14:08:29.553Z,60.32
2018-08-25T14:10:57.081Z,61.62
2018-08-25T14:13:24.816Z,61.92
2018-08-25T14:15:52.611Z,62.18
2018-08-25T14:18:20.404Z,61.94
2018-08-25T14:20:48.083Z,61.67
2018-08-25T14:23:15.796Z,61.67
2018-08-25T14:25:43.503Z,61.70
2018-08-25T14:28:11.225Z,61.56
2018-08-25T14:30:38.939Z,62.13
2018-08-25T14:33:06.794Z,62.63
2018-08-25T14:35:34.500Z,61.68
2018-08-25T14:38:02.192Z,62.50
2018-08-25T14:40:29.912Z,62.32
2018-08-25T14:42:57.633Z,62.49
2018-08-25T14:45:25.530Z,63.65
2018-08-25T14:47:53.264Z,63.54
2018-08-25T14:50:21.028Z,63.40
2018-08-25T14:52:48.720Z,63.27
2018-08-25T14:55:16.425Z,63.95
2018-08-25T14:57:44.192Z,64.16
2018-08-25T15:00:11.900Z,64.90
2018-08-25T15:02:39.560Z,64.38
2018-08-25T15:05:07.459Z,64.53
2018-08-25T15:07:35.151Z,63.98
2018-08-25T15:10:03.020Z,63.91
2018-08-25T15:12:30.738Z,64.27
2018-08-25T15:14:58.568Z,63.78
2018-08-25T15:17:26.272Z,64.25
2018-08-25T15:19:53.973Z,64.88
2018-08-25T15:22:21.714Z,64.71
2018-08-25T15:24:49.383Z,64.61
2018-08-25T15:27:17.283Z,64.25
2018-08-25T15:29:45.004Z,64.44
2018-08-25T15:32:12.712Z,64.87
2018-08-25T15:34:40.455Z,64.07
2018-08-25T15:37:08.230Z,64.14
2018-08-25T15:39:35.952Z,64.58
2018-08-25T15:42:03.647Z,64.32
2018-08-25T15:44:31.370Z,65.83
2018-08-25T15:46:59.083Z,65.20
2018-08-25T15:49:26.767Z,64.87
2018-08-25T15:51:54.579Z,65.00
2018-08-25T15:54:22.237Z,65.56
2018-08-25T15:56:49.990Z,65.97
2018-08-25T15:59:17.664Z,66.30
2018-08-25T16:01:45.367Z,67.28
2018-08-25T16:04:13.152Z,67.04
2018-08-25T16:06:40.899Z,66.95
2018-08-25T16:09:10.134Z,67.28
2018-08-25T16:11:37.854Z,67.25
2018-08-25T16:14:05.806Z,66.38
2018-08-25T16:16:33.559Z,66.49
2018-08-25T16:19:01.386Z,65.86
2018-08-25T16:21:29.118Z,65.71
2018-08-25T16:23:56.817Z,64.78
2018-08-25T16:26:24.546Z,65.55
2018-08-25T16:28:52.244Z,65.14
2018-08-25T16:31:19.966Z,66.75
2018-08-25T16:33:47.720Z,66.67
2018-08-25T16:36:15.380Z,66.62
2018-08-25T16:38:43.117Z,66.67
2018-08-25T16:41:10.841Z,67.13
2018-08-25T16:43:38.556Z,67.92
2018-08-25T16:46:06.311Z,68.22
2018-08-25T16:48:34.140Z,68.52
2018-08-25T16:51:01.824Z,68.74
2018-08-25T16:53:29.534Z,68.38
2018-08-25T16:55:57.464Z,69.24
2018-08-25T16:58:25.108Z,69.49
2018-08-25T17:00:52.824Z,68.90
2018-08-25T17:03:20.558Z,69.00
2018-08-25T17:05:48.265Z,69.71
2018-08-25T17:08:15.936Z,69.13
2018-08-25T17:10:43.706Z,69.25
2018-08-25T17:13:11.424Z,69.30
2018-08-25T17:15:39.122Z,69.34
2018-08-25T17:18:06.821Z,69.99
2018-08-25T17:20:34.549Z,69.22
2018-08-25T17:23:02.543Z,69.63
2018-08-25T17:25:30.272Z,70.60
2018-08-25T17:27:58.056Z,70.24
2018-08-25T17:30:25.852Z,69.83
2018-08-25T17:32:53.622Z,70.00
2018-08-25T17:35:21.294Z,70.74
2018-08-25T17:37:49.056Z,70.18
2018-08-25T17:40:16.805Z,70.17
2018-08-25T17:42:44.550Z,70.72
2018-08-25T17:45:12.428Z,70.72
2018-08-25T17:47:40.037Z,70.62
2018-08-25T17:50:07.902Z,70.35
2018-08-25T17:52:35.650Z,70.76
2018-08-25T17:55:03.399Z,71.25
2018-08-25T17:57:31.228Z,71.91
2018-08-25T17:59:58.905Z,71.89
2018-08-25T18:02:26.602Z,72.16
2018-08-25T18:04:54.285Z,72.25
2018-08-25T18:07:22.020Z,72.72
2018-08-25T18:09:49.721Z,73.57
2018-08-25T18:12:17.487Z,73.04
2018-08-25T18:14:45.181Z,72.92
2018-08-25T18:17:12.897Z,72.95
2018-08-25T18:19:40.628Z,72.94
2018-08-25T18:22:08.313Z,73.71
2018-08-25T18:24:36.096Z,74.00
2018-08-25T18:27:04.044Z,73.84
2018-08-25T18:29:31.745Z,74.51
2018-08-25T18:31:59.610Z,74.62
2018-08-25T18:34:27.324Z,74.60
2018-08-25T18:36:55.151Z,75.18
2018-08-25T18:39:22.865Z,75.82
2018-08-25T18:41:50.616Z,76.56
2018-08-25T18:44:18.316Z,76.08
2018-08-25T18:46:46.092Z,76.20
2018-08-25T18:49:13.813Z,76.17
2018-08-25T18:51:41.536Z,76.36
2018-08-25T18:54:09.248Z,76.88
2018-08-25T18:56:37.290Z,76.58
2018-08-25T18:59:05.054Z,76.76
2018-08-25T19:01:32.807Z,77.21
2018-08-25T19:04:00.930Z,77.23
2018-08-25T19:06:28.691Z,77.48
2018-08-25T19:08:56.438Z,77.26
2018-08-25T19:11:24.201Z,77.83
2018-08-25T19:13:52.183Z,77.61
2018-08-25T19:16:19.876Z,77.91
2018-08-25T19:18:47.587Z,77.74
2018-08-25T19:21:15.748Z,78.14
2018-08-25T19:23:43.520Z,78.05
2018-08-25T19:26:11.216Z,78.47
2018-08-25T19:28:38.944Z,78.11
2018-08-25T19:31:06.629Z,78.79
2018-08-25T19:33:34.388Z,79.10
2018-08-25T19:36:02.099Z,78.77
2018-08-25T19:38:29.820Z,79.27
2018-08-25T19:40:57.665Z,79.58
2018-08-25T19:43:25.411Z,79.31
2018-08-25T19:45:53.160Z,79.12
2018-08-25T19:48:20.964Z,79.70
2018-08-25T19:50:48.680Z,79.50
2018-08-25T19:53:16.420Z,79.56
2018-08-25T19:55:44.436Z,79.89
2018-08-25T19:58:12.169Z,80.49
2018-08-25T20:00:39.896Z,81.18
2018-08-25T20:03:07.602Z,80.46
2018-08-25T20:05:35.358Z,81.70
2018-08-25T20:08:03.040Z,80.74
2018-08-25T20:10:30.768Z,80.87
2018-08-25T20:12:58.528Z,81.00
2018-08-25T20:15:26.270Z,80.90
2018-08-25T20:17:54.004Z,81.33
2018-08-25T20:20:21.715Z,81.09
2018-08-25T20:22:49.404Z,81.40
2018-08-25T20:25:17.113Z,80.93
2018-08-25T20:27:44.967Z,81.88
2018-08-25T20:30:12.729Z,81.44
2018-08-25T20:32:40.373Z,81.18
2018-08-25T20:35:08.239Z,82.26
2018-08-25T20:37:35.916Z,81.43
2018-08-25T20:40:04.128Z,81.75
2018-08-25T20:42:31.919Z,82.48
2018-08-25T20:44:59.615Z,82.24
2018-08-25T20:47:27.587Z,82.41
2018-08-25T20:49:55.319Z,82.46
2018-08-25T20:52:23.069Z,82.55
2018-08-25T20:54:50.796Z,83.38
2018-08-25T20:57:18.568Z,82.99
2018-08-25T20:59:46.274Z,83.25
2018-08-25T21:02:13.942Z,83.43
2018-08-25T21:04:41.764Z,83.31
2018-08-25T21:07:09.492Z,83.61
2018-08-25T21:09:37.163Z,83.21
2018-08-25T21:12:04.961Z,84.02
2018-08-25T21:14:32.714Z,85.41
2018-08-25T21:17:00.448Z,84.23
2018-08-25T21:19:28.203Z,84.04
2018-08-25T21:21:55.895Z,84.69
2018-08-25T21:24:23.675Z,83.95
2018-08-25T21:26:51.397Z,85.31
2018-08-25T21:29:19.106Z,85.12
2018-08-25T21:31:46.845Z,85.38
2018-08-25T21:34:14.524Z,84.99
2018-08-25T21:36:42.345Z,84.92
2018-08-25T21:39:11.592Z,84.72
2018-08-25T21:41:39.268Z,84.80
2018-08-25T21:44:07.280Z,85.03
2018-08-25T21:46:35.303Z,85.22
2018-08-25T21:49:03.123Z,85.19
2018-08-25T21:51:31.119Z,85.03
2018-08-25T21:53:58.868Z,84.66
2018-08-25T21:56:26.569Z,85.14
2018-08-25T21:58:54.228Z,85.69
2018-08-25T22:01:21.914Z,85.92
2018-08-25T22:03:49.637Z,85.65
2018-08-25T22:06:17.376Z,86.72
2018-08-25T22:08:45.081Z,87.58
2018-08-25T22:11:12.784Z,87.28
2018-08-25T22:13:40.497Z,88.26
2018-08-25T22:16:08.280Z,88.25
2018-08-25T22:18:35.955Z,87.59
2018-08-25T22:21:03.681Z,87.48
2018-08-25T22:23:31.360Z,87.07
2018-08-25T22:25:59.047Z,86.24
2018-08-25T22:28:26.751Z,85.65
2018-08-25T22:30:54.600Z,86.61
2018-08-25T22:33:22.275Z,85.58
2018-08-25T22:35:50.035Z,85.81
2018-08-25T22:38:17.732Z,85.80
2018-08-25T22:40:45.429Z,86.09
2018-08-25T22:43:13.175Z,86.15
2018-08-25T22:45:40.854Z,86.18
2018-08-25T22:48:08.515Z,85.99
2018-08-25T22:50:36.263Z,86.75
2018-08-25T22:53:04.006Z,86.81
2018-08-25T22:55:31.745Z,86.71
2018-08-25T22:57:59.500Z,87.24
2018-08-25T23:00:27.217Z,86.93
2018-08-25T23:02:54.921Z,87.08
2018-08-25T23:05:22.644Z,87.24
2018-08-25T23:07:50.335Z,86.42
2018-08-25T23:10:18.016Z,86.52
2018-08-25T23:12:45.714Z,86.37
2018-08-25T23:15:13.435Z,85.99
2018-08-25T23:17:41.120Z,85.90
2018-08-25T23:20:08.828Z,86.04
2018-08-25T23:22:36.588Z,86.17
2018-08-25T23:25:04.365Z,85.82
2018-08-25T23:27:32.076Z,86.42
2018-08-25T23:29:59.778Z,86.41
2018-08-25T23:32:27.477Z,86.59
2018-08-25T23:34:55.192Z,86.94
2018-08-25T23:37:22.874Z,86.95
2018-08-25T23:39:50.543Z,86.57
2018-08-25T23:42:18.319Z,86.32
2018-08-25T23:44:46.024Z,86.67
2018-08-25T23:47:13.744Z,86.86
2018-08-25T23:49:41.457Z,86.16
2018-08-25T23:52:09.479Z,85.46
2018-08-25T23:54:37.180Z,86.33
2018-08-25T23:57:05.131Z,86.92
2018-08-25T23:59:32.838Z,87.21
